Time;durP1;ratioP1;P1;durP2;ratioP2;P2;SDS_P1;SDS_P2;PMS_P1;PMS_P2;Temp;Humidity;BMP_temperature;BMP_pressure;BME280_temperature;BME280_humidity;BME280_pressure;Samples;Min_cycle;Max_cycle;Signal;HPM_P1;HPM_P2
2023/09/12 00:00:51;;;;;;;;;;;;;;;19.28;100.00;100692.06;5091179;28;20857;-77
2023/09/12 00:03:20;;;;;;;;;;;;;;;19.28;100.00;100691.22;5102938;28;20007;-78
2023/09/12 00:05:56;;;;;;;;;;;;;;;19.18;100.00;100686.31;5101349;28;19973;-77
2023/09/12 00:08:21;;;;;;;;;;;;;;;19.14;100.00;100685.09;5103890;28;20301;-77
2023/09/12 00:10:46;;;;;;;;;;;;;;;19.09;100.00;100690.34;5110334;28;19922;-77
2023/09/12 00:13:11;;;;;;;;;;;;;;;19.08;100.00;100704.91;5111952;28;19973;-77
2023/09/12 00:15:37;;;;;;;;;;;;;;;18.97;100.00;100698.34;5107836;28;20358;-78
2023/09/12 00:18:03;;;;;;;;;;;;;;;18.95;100.00;100703.97;5113028;28;19915;-77
2023/09/12 00:20:28;;;;;;;;;;;;;;;18.91;100.00;100708.16;5103805;28;20375;-77
2023/09/12 00:22:54;;;;;;;;;;;;;;;18.83;100.00;100719.25;5098987;28;19915;-77
2023/09/12 00:25:19;;;;;;;;;;;;;;;18.88;100.00;100743.75;5108637;28;19916;-78
2023/09/12 00:27:44;;;;;;;;;;;;;;;18.87;100.00;100750.22;5097181;28;19927;-76
2023/09/12 00:30:10;;;;;;;;;;;;;;;18.91;100.00;100756.84;5102978;28;19973;-76
2023/09/12 00:32:36;;;;;;;;;;;;;;;18.95;100.00;100760.78;5092484;28;20489;-77
2023/09/12 00:35:01;;;;;;;;;;;;;;;18.97;100.00;100765.97;5100207;28;19919;-77
2023/09/12 00:37:26;;;;;;;;;;;;;;;19.01;100.00;100766.34;5092852;28;20014;-77
2023/09/12 00:39:51;;;;;;;;;;;;;;;18.95;100.00;100762.66;5100697;28;19990;-77
2023/09/12 00:42:17;;;;;;;;;;;;;;;18.92;100.00;100763.09;5101479;28;19926;-78
2023/09/12 00:44:42;;;;;;;;;;;;;;;18.90;100.00;100774.13;5079440;28;19920;-78
2023/09/12 00:47:08;;;;;;;;;;;;;;;18.82;100.00;100768.94;5090716;28;20537;-78
2023/09/12 00:49:34;;;;;;;;;;;;;;;18.86;100.00;100772.91;5090897;28;19916;-77
2023/09/12 00:52:01;;;;;;;;;;;;;;;18.88;100.00;100778.91;5093870;28;20447;-77
2023/09/12 00:54:27;;;;;;;;;;;;;;;18.89;100.00;100767.03;5104923;28;20822;-77
2023/09/12 00:56:52;;;;;;;;;;;;;;;18.89;100.00;100767.03;5104429;28;20397;-78
2023/09/12 00:59:18;;;;;;;;;;;;;;;18.90;100.00;100771.41;5099242;28;20382;-78
2023/09/12 01:01:43;;;;;;;;;;;;;;;18.93;100.00;100770.97;5102474;28;19959;-76
2023/09/12 01:04:09;;;;;;;;;;;;;;;18.83;100.00;100759.81;5085179;28;19912;-76
2023/09/12 01:06:34;;;;;;;;;;;;;;;18.95;100.00;100782.41;5102184;28;19916;-77
2023/09/12 01:09:00;;;;;;;;;;;;;;;18.92;100.00;100768.50;5098742;28;20298;-77
2023/09/12 01:11:26;;;;;;;;;;;;;;;18.95;100.00;100768.06;5099109;28;19916;-77
2023/09/12 01:13:51;;;;;;;;;;;;;;;18.96;100.00;100757.03;5098651;28;19912;-74
2023/09/12 01:16:16;;;;;;;;;;;;;;;18.90;100.00;100749.78;5096597;28;20308;-76
2023/09/12 01:18:42;;;;;;;;;;;;;;;18.80;100.00;100746.72;5095663;28;20396;-77
2023/09/12 01:21:07;;;;;;;;;;;;;;;18.93;100.00;100754.75;5093564;28;19959;-78
2023/09/12 01:23:46;;;;;;;;;;;;;;;18.91;100.00;100743.31;5089702;28;20336;-78
2023/09/12 01:26:32;;;;;;;;;;;;;;;18.96;100.00;100748.91;5092453;28;19915;-77
2023/09/12 01:28:58;;;;;;;;;;;;;;;18.91;100.00;100735.19;5093560;28;19928;-79
2023/09/12 01:31:24;;;;;;;;;;;;;;;18.75;100.00;100724.84;5087385;28;19923;-77
2023/09/12 01:33:49;;;;;;;;;;;;;;;18.81;100.00;100734.84;5099295;28;19919;-78
2023/09/12 01:36:15;;;;;;;;;;;;;;;18.81;100.00;100729.44;5096464;28;20018;-78
2023/09/12 01:38:40;;;;;;;;;;;;;;;18.72;100.00;100725.31;5095919;28;19916;-77
2023/09/12 01:41:06;;;;;;;;;;;;;;;18.75;100.00;100720.31;5094158;28;20499;-76
2023/09/12 01:43:33;;;;;;;;;;;;;;;18.68;100.00;100726.78;5093174;28;19927;-78
2023/09/12 01:45:59;;;;;;;;;;;;;;;18.64;100.00;100717.47;5087845;28;19913;-77
2023/09/12 01:48:26;;;;;;;;;;;;;;;18.63;100.00;100721.19;5105916;28;19953;-77
2023/09/12 01:50:51;;;;;;;;;;;;;;;18.83;100.00;100721.13;5107632;28;20366;-78
2023/09/12 01:53:17;;;;;;;;;;;;;;;18.84;100.00;100710.06;5085261;28;20371;-78
2023/09/12 01:55:44;;;;;;;;;;;;;;;18.76;100.00;100702.19;5102293;28;19918;-78
2023/09/12 01:58:10;;;;;;;;;;;;;;;18.85;100.00;100700.09;5106127;28;19974;-77
2023/09/12 02:00:35;;;;;;;;;;;;;;;18.81;100.00;100697.00;5077686;28;19912;-77
2023/09/12 02:03:01;;;;;;;;;;;;;;;18.95;100.00;100703.97;5093522;28;20727;-78
2023/09/12 02:05:27;;;;;;;;;;;;;;;18.75;100.00;100697.81;5100202;28;19962;-79
2023/09/12 02:07:52;;;;;;;;;;;;;;;18.66;100.00;100693.72;5080472;28;20555;-78
2023/09/12 02:10:17;;;;;;;;;;;;;;;18.67;100.00;100707.03;5078854;28;19920;-78
2023/09/12 02:12:43;;;;;;;;;;;;;;;18.55;100.00;100706.88;5106025;28;20373;-77
2023/09/12 02:15:08;;;;;;;;;;;;;;;18.68;100.00;100707.84;5100861;28;20437;-77
2023/09/12 02:17:34;;;;;;;;;;;;;;;18.68;100.00;100713.25;5092160;28;19995;-77
2023/09/12 02:19:59;;;;;;;;;;;;;;;18.71;100.00;100704.72;5086699;28;19912;-77
2023/09/12 02:22:24;;;;;;;;;;;;;;;18.78;100.00;100700.13;5091892;28;20483;-77
2023/09/12 02:24:50;;;;;;;;;;;;;;;18.69;100.00;100696.00;5085282;28;20006;-77
2023/09/12 02:27:16;;;;;;;;;;;;;;;18.66;100.00;100704.53;5097326;28;20035;-77
2023/09/12 02:29:42;;;;;;;;;;;;;;;18.65;100.00;100709.13;5103432;28;20635;-76
2023/09/12 02:32:07;;;;;;;;;;;;;;;18.72;100.00;100715.31;5097136;28;19926;-77
2023/09/12 02:34:33;;;;;;;;;;;;;;;18.65;100.00;100724.50;5091544;28;19923;-76
2023/09/12 02:36:58;;;;;;;;;;;;;;;18.75;100.00;100724.84;5103091;28;19915;-78
2023/09/12 02:39:24;;;;;;;;;;;;;;;18.71;100.00;100723.66;5105749;28;19916;-78
2023/09/12 02:41:49;;;;;;;;;;;;;;;18.71;100.00;100742.59;5106763;28;20302;-77
2023/09/12 02:44:14;;;;;;;;;;;;;;;18.80;100.00;100751.28;5100860;28;19911;-77
2023/09/12 02:46:39;;;;;;;;;;;;;;;18.83;100.00;100745.47;5100293;28;20293;-77
2023/09/12 02:49:05;;;;;;;;;;;;;;;18.82;100.00;100736.50;5092813;28;19923;-77
2023/09/12 02:51:31;;;;;;;;;;;;;;;18.89;100.00;100745.41;5097784;28;20358;-77
2023/09/12 02:53:56;;;;;;;;;;;;;;;18.86;100.00;100753.97;5091621;28;20286;-77
2023/09/12 02:56:21;;;;;;;;;;;;;;;18.84;100.00;100761.47;5090287;28;19938;-76
2023/09/12 02:58:47;;;;;;;;;;;;;;;18.90;100.00;100749.78;5096554;28;19923;-78
2023/09/12 03:01:16;;;;;;;;;;;;;;;19.04;100.00;100739.72;5080123;28;19915;-78
2023/09/12 03:03:41;;;;;;;;;;;;;;;19.05;100.00;100729.72;5100332;28;20692;-79
2023/09/12 03:06:07;;;;;;;;;;;;;;;18.94;100.00;100734.78;5103092;28;20014;-78
2023/09/12 03:08:32;;;;;;;;;;;;;;;18.96;100.00;100732.69;5096073;28;19946;-78
2023/09/12 03:10:57;;;;;;;;;;;;;;;18.95;100.00;100739.13;5091456;28;19916;-77
2023/09/12 03:13:24;;;;;;;;;;;;;;;18.97;100.00;100749.75;5092332;28;19955;-77
2023/09/12 03:15:49;;;;;;;;;;;;;;;18.87;100.00;100749.38;5096209;28;19981;-77
2023/09/12 03:18:15;;;;;;;;;;;;;;;18.75;100.00;100760.88;5104710;28;19966;-78
2023/09/12 03:20:40;;;;;;;;;;;;;;;18.74;100.00;100772.72;5088492;28;19911;-77
2023/09/12 03:23:05;;;;;;;;;;;;;;;18.82;100.00;100768.94;5097637;28;19916;-77
2023/09/12 03:25:35;;;;;;;;;;;;;;;18.89;100.00;100766.22;5106879;28;19916;-77
2023/09/12 03:28:00;;;;;;;;;;;;;;;18.86;100.00;100764.78;5093526;28;20302;-77
2023/09/12 03:30:25;;;;;;;;;;;;;;;18.95;100.00;100762.66;5096464;28;19923;-77
2023/09/12 03:32:50;;;;;;;;;;;;;;;18.92;100.00;100763.91;5096062;28;20387;-77
2023/09/12 03:35:16;;;;;;;;;;;;;;;18.87;100.00;100761.03;5105148;28;19923;-77
2023/09/12 03:37:42;;;;;;;;;;;;;;;18.85;100.00;100757.72;5105036;28;20878;-78
2023/09/12 03:40:08;;;;;;;;;;;;;;;18.85;100.00;100751.50;5096307;28;19962;-77
2023/09/12 03:42:33;;;;;;;;;;;;;;;18.86;100.00;100761.25;5102831;28;19962;-77
2023/09/12 03:44:59;;;;;;;;;;;;;;;18.83;100.00;100757.09;5105060;28;19920;-77
2023/09/12 03:47:24;;;;;;;;;;;;;;;18.91;100.00;100764.13;5104767;28;19915;-77
2023/09/12 03:49:49;;;;;;;;;;;;;;;19.01;100.00;100766.34;5098295;28;20372;-77
2023/09/12 03:52:15;;;;;;;;;;;;;;;18.94;100.00;100764.53;5092948;28;19923;-78
2023/09/12 03:54:41;;;;;;;;;;;;;;;19.04;100.00;100783.00;5090909;28;19912;-77
2023/09/12 03:57:06;;;;;;;;;;;;;;;19.03;100.00;100777.78;5107186;28;19916;-77
2023/09/12 03:59:31;;;;;;;;;;;;;;;19.01;100.00;100782.59;5104865;28;20405;-78
2023/09/12 04:01:56;;;;;;;;;;;;;;;19.04;100.00;100772.16;5097185;28;19920;-78
2023/09/12 04:04:22;;;;;;;;;;;;;;;19.06;100.00;100780.91;5096036;28;19920;-77
2023/09/12 04:06:47;;;;;;;;;;;;;;;19.04;100.00;100783.00;5094232;28;19927;-79
2023/09/12 04:09:12;;;;;;;;;;;;;;;19.04;100.00;100766.75;5099157;28;20795;-78
2023/09/12 04:11:37;;;;;;;;;;;;;;;19.05;100.00;100764.88;5091624;28;19915;-77
2023/09/12 04:14:03;;;;;;;;;;;;;;;18.98;100.00;100762.22;5088555;28;19919;-77
2023/09/12 04:16:28;;;;;;;;;;;;;;;18.96;100.00;100759.75;5108266;28;19959;-78
2023/09/12 04:18:53;;;;;;;;;;;;;;;19.00;100.00;100762.00;5108183;28;19911;-79
2023/09/12 04:21:19;;;;;;;;;;;;;;;18.96;100.00;100762.44;5108312;28;20487;-77
2023/09/12 04:23:44;;;;;;;;;;;;;;;18.96;100.00;100762.44;5100038;28;19965;-77
2023/09/12 04:26:09;;;;;;;;;;;;;;;18.91;100.00;100756.84;5105673;28;19916;-77
2023/09/12 04:28:34;;;;;;;;;;;;;;;18.88;100.00;100767.28;5101874;28;19973;-77
2023/09/12 04:31:03;;;;;;;;;;;;;;;18.82;100.00;100760.00;5100415;28;19916;-78
2023/09/12 04:33:29;;;;;;;;;;;;;;;18.92;100.00;100753.09;5096658;28;19974;-78
2023/09/12 04:35:56;;;;;;;;;;;;;;;18.91;100.00;100751.44;5104248;28;19919;-78
2023/09/12 04:38:24;;;;;;;;;;;;;;;18.94;100.00;100759.13;5099300;28;19919;-78
2023/09/12 04:40:53;;;;;;;;;;;;;;;18.94;100.00;100756.41;5102716;28;19920;-77
2023/09/12 04:43:18;;;;;;;;;;;;;;;18.98;100.00;100752.22;5099520;28;19958;-77
2023/09/12 04:45:43;;;;;;;;;;;;;;;19.00;100.00;100749.28;5103516;28;19947;-77
2023/09/12 04:48:09;;;;;;;;;;;;;;;19.04;100.00;100753.25;5103998;28;20014;-77
2023/09/12 04:50:39;;;;;;;;;;;;;;;18.95;100.00;100744.53;5101113;28;19916;-78
2023/09/12 04:53:05;;;;;;;;;;;;;;;18.95;100.00;100741.84;5107757;28;19945;-77
2023/09/12 04:55:30;;;;;;;;;;;;;;;19.02;100.00;100736.38;5102300;28;19916;-77
2023/09/12 04:57:55;;;;;;;;;;;;;;;19.04;100.00;100737.00;5082785;28;19916;-77
2023/09/12 05:00:21;;;;;;;;;;;;;;;18.99;100.00;100739.53;5078986;28;20362;-77
2023/09/12 05:02:46;;;;;;;;;;;;;;;19.00;100.00;100740.34;5080709;28;20488;-78
2023/09/12 05:05:11;;;;;;;;;;;;;;;19.03;100.00;100740.72;5079686;28;19966;-77
2023/09/12 05:07:36;;;;;;;;;;;;;;;19.08;100.00;100745.50;5080034;28;20421;-78
2023/09/12 05:10:03;;;;;;;;;;;;;;;19.11;100.00;100751.31;5081038;28;19966;-78
2023/09/12 05:12:28;;;;;;;;;;;;;;;19.03;100.00;100745.31;5086358;28;20006;-78
2023/09/12 05:14:54;;;;;;;;;;;;;;;19.10;100.00;100748.81;5080686;28;20011;-77
2023/09/12 05:17:19;;;;;;;;;;;;;;;19.17;100.00;100744.19;5082506;28;19974;-77
2023/09/12 05:19:44;;;;;;;;;;;;;;;19.06;100.00;100742.19;5062023;28;20002;-77
2023/09/12 05:22:10;;;;;;;;;;;;;;;19.22;100.00;100736.22;5083938;28;19924;-77
2023/09/12 05:24:35;;;;;;;;;;;;;;;19.23;100.00;100735.19;5069160;28;20431;-77
2023/09/12 05:27:01;;;;;;;;;;;;;;;19.28;100.00;100742.66;5076687;28;20472;-77
2023/09/12 05:29:26;;;;;;;;;;;;;;;19.33;100.00;100740.94;5078368;28;19920;-77
2023/09/12 05:31:51;;;;;;;;;;;;;;;19.27;100.00;100741.84;5061251;28;19956;-77
2023/09/12 05:34:17;;;;;;;;;;;;;;;19.21;100.00;100750.00;5081643;28;19939;-79
2023/09/12 05:36:42;;;;;;;;;;;;;;;19.32;100.00;100746.59;5078803;28;19931;-78
2023/09/12 05:39:09;;;;;;;;;;;;;;;19.31;100.00;100751.16;5080440;28;19912;-76
2023/09/12 05:41:34;;;;;;;;;;;;;;;19.30;100.00;100754.91;5080064;28;19963;-77
2023/09/12 05:43:59;;;;;;;;;;;;;;;19.20;100.00;100743.75;5080745;28;19955;-76
2023/09/12 05:46:25;;;;;;;;;;;;;;;19.26;100.00;100758.28;5082528;28;20390;-78
2023/09/12 05:48:50;;;;;;;;;;;;;;;19.12;100.00;100758.38;5077316;28;19924;-77
2023/09/12 05:51:16;;;;;;;;;;;;;;;19.14;100.00;100763.56;5087241;28;19950;-77
2023/09/12 05:53:41;;;;;;;;;;;;;;;19.04;100.00;100771.34;5082887;28;19916;-78
2023/09/12 05:56:07;;;;;;;;;;;;;;;19.14;100.00;100788.75;5078612;28;19920;-78
2023/09/12 05:58:34;;;;;;;;;;;;;;;19.22;100.00;100782.22;5080502;28;20164;-78
2023/09/12 06:00:59;;;;;;;;;;;;;;;19.10;100.00;100787.53;5059215;28;19920;-78
2023/09/12 06:03:24;;;;;;;;;;;;;;;19.13;100.00;100794.41;5087416;28;19961;-77
2023/09/12 06:05:50;;;;;;;;;;;;;;;19.03;100.00;100791.31;5060358;28;20389;-77
2023/09/12 06:08:15;;;;;;;;;;;;;;;19.00;100.00;100802.59;5080914;28;19920;-76
2023/09/12 06:10:41;;;;;;;;;;;;;;;19.05;100.00;100800.88;5062247;28;20030;-76
2023/09/12 06:13:06;;;;;;;;;;;;;;;18.90;100.00;100803.88;5084274;28;19916;-77
2023/09/12 06:15:31;;;;;;;;;;;;;;;19.03;100.00;100818.38;5079190;28;20294;-78
2023/09/12 06:17:56;;;;;;;;;;;;;;;19.05;100.00;100821.69;5079614;28;20183;-78
2023/09/12 06:20:22;;;;;;;;;;;;;;;19.05;100.00;100827.09;5080235;28;19920;-78
2023/09/12 06:22:47;;;;;;;;;;;;;;;19.13;100.00;100830.41;5075304;28;20256;-78
2023/09/12 06:25:12;;;;;;;;;;;;;;;19.14;100.00;100825.81;5081717;28;20333;-77
2023/09/12 06:27:38;;;;;;;;;;;;;;;19.15;100.00;100822.91;5078157;28;19919;-77
2023/09/12 06:30:03;;;;;;;;;;;;;;;19.00;100.00;100818.81;5074592;28;19924;-77
2023/09/12 06:32:28;;;;;;;;;;;;;;;18.92;100.00;100823.44;5081447;28;19918;-77
2023/09/12 06:34:54;;;;;;;;;;;;;;;18.96;100.00;100813.84;5058916;28;20006;-78
2023/09/12 06:37:19;;;;;;;;;;;;;;;19.05;100.00;100803.59;5078987;28;19923;-77
2023/09/12 06:39:44;;;;;;;;;;;;;;;18.97;100.00;100801.97;5075180;28;19917;-77
2023/09/12 06:42:10;;;;;;;;;;;;;;;19.08;100.00;100805.03;5079426;28;20363;-77
2023/09/12 06:44:35;;;;;;;;;;;;;;;19.12;100.00;100798.97;5079607;28;19939;-77
2023/09/12 06:47:00;;;;;;;;;;;;;;;19.27;100.00;100798.69;5073138;28;20386;-77
2023/09/12 06:49:25;;;;;;;;;;;;;;;19.41;100.00;100799.41;5079440;28;20055;-77
2023/09/12 06:51:51;;;;;;;;;;;;;;;19.17;100.00;100791.03;5077363;28;19996;-77
2023/09/12 06:54:16;;;;;;;;;;;;;;;19.40;100.00;100798.56;5078175;28;19920;-78
2023/09/12 06:56:42;;;;;;;;;;;;;;;19.61;100.00;100805.47;5078393;28;19977;-77
2023/09/12 06:59:08;;;;;;;;;;;;;;;19.53;100.00;100788.69;5076646;28;19963;-77
2023/09/12 07:01:33;;;;;;;;;;;;;;;19.54;100.00;100788.47;5079258;28;20351;-78
2023/09/12 07:03:58;;;;;;;;;;;;;;;19.72;100.00;100784.19;5072805;28;19916;-78
2023/09/12 07:06:23;;;;;;;;;;;;;;;19.65;100.00;100784.22;5082769;28;19912;-77
2023/09/12 07:08:49;;;;;;;;;;;;;;;19.87;100.00;100781.13;5076645;28;20027;-77
2023/09/12 07:11:14;;;;;;;;;;;;;;;19.86;100.00;100764.06;5078436;28;19913;-78
2023/09/12 07:13:40;;;;;;;;;;;;;;;20.14;100.00;100777.09;5081539;28;20483;-77
2023/09/12 07:16:05;;;;;;;;;;;;;;;20.29;100.00;100771.31;5078159;28;20309;-77
2023/09/12 07:18:32;;;;;;;;;;;;;;;20.08;100.00;100756.31;5080669;28;19915;-78
2023/09/12 07:21:01;;;;;;;;;;;;;;;19.99;100.00;100760.38;5079078;28;19916;-77
2023/09/12 07:23:27;;;;;;;;;;;;;;;19.81;100.00;100756.59;5072509;28;20046;-76
2023/09/12 07:25:54;;;;;;;;;;;;;;;19.96;100.00;100764.34;5076489;28;20354;-77
2023/09/12 07:28:19;;;;;;;;;;;;;;;19.94;100.00;100752.09;5079768;28;19974;-77
2023/09/12 07:30:47;;;;;;;;;;;;;;;20.20;100.00;100761.81;5080254;28;19951;-77
2023/09/12 07:33:13;;;;;;;;;;;;;;;19.81;100.00;100740.34;5080934;28;19979;-77
2023/09/12 07:35:38;;;;;;;;;;;;;;;19.93;100.00;100770.22;5082940;28;20401;-77
2023/09/12 07:38:04;;;;;;;;;;;;;;;19.99;100.00;100773.91;5079715;28;19917;-77
2023/09/12 07:40:29;;;;;;;;;;;;;;;19.96;100.00;100775.19;5082593;28;19959;-77
2023/09/12 07:42:54;;;;;;;;;;;;;;;20.21;100.00;100794.13;5076350;28;19921;-77
2023/09/12 07:45:20;;;;;;;;;;;;;;;20.18;100.00;100772.91;5078762;28;20053;-77
2023/09/12 07:47:45;;;;;;;;;;;;;;;20.07;100.00;100770.09;5080620;28;19962;-78
2023/09/12 07:50:10;;;;;;;;;;;;;;;20.19;100.00;100769.13;5077166;28;20291;-77
2023/09/12 07:52:36;;;;;;;;;;;;;;;20.34;100.00;100765.19;5082203;28;19955;-77
2023/09/12 07:55:04;;;;;;;;;;;;;;;20.46;100.00;100760.66;5075660;28;19916;-78
2023/09/12 07:57:30;;;;;;;;;;;;;;;20.53;100.00;100750.56;5083679;28;19926;-77
2023/09/12 07:59:56;;;;;;;;;;;;;;;20.86;100.00;100741.19;5075938;28;19916;-77
2023/09/12 08:02:21;;;;;;;;;;;;;;;20.87;100.00;100740.13;5078343;28;20344;-78
2023/09/12 08:04:47;;;;;;;;;;;;;;;21.27;100.00;100743.06;5083779;28;20275;-78
2023/09/12 08:07:12;;;;;;;;;;;;;;;21.23;100.00;100713.91;5085329;28;19920;-78
2023/09/12 08:09:53;;;;;;;;;;;;;;;21.46;100.00;100715.84;5081408;28;19920;-79
2023/09/12 08:12:19;;;;;;;;;;;;;;;21.37;100.00;100701.75;5078070;28;19916;-76
2023/09/12 08:14:45;;;;;;;;;;;;;;;21.12;100.00;100685.69;5080370;28;19919;-75
2023/09/12 08:17:10;;;;;;;;;;;;;;;21.15;100.00;100696.06;5079264;28;19939;-75
2023/09/12 08:19:36;;;;;;;;;;;;;;;20.66;100.00;100690.75;5075898;28;20802;-75
2023/09/12 08:22:01;;;;;;;;;;;;;;;20.83;100.00;100704.47;5075143;28;20391;-75
2023/09/12 08:24:26;;;;;;;;;;;;;;;20.99;100.00;100697.56;5081478;28;19916;-76
2023/09/12 08:26:51;;;;;;;;;;;;;;;21.03;100.00;100682.47;5080581;28;20006;-78
2023/09/12 08:29:17;;;;;;;;;;;;;;;21.02;100.00;100680.81;5080340;28;20042;-75
2023/09/12 08:31:42;;;;;;;;;;;;;;;21.36;100.00;100691.97;5086398;28;19916;-75
2023/09/12 08:34:07;;;;;;;;;;;;;;;21.62;100.00;100676.28;5074102;28;19919;-75
2023/09/12 08:36:33;;;;;;;;;;;;;;;21.62;100.00;100674.41;5075029;28;20299;-75
2023/09/12 08:39:00;;;;;;;;;;;;;;;21.45;100.00;100611.81;5074405;28;20375;-75
2023/09/12 08:41:26;;;;;;;;;;;;;;;21.35;100.00;100616.97;5080668;28;19916;-75
2023/09/12 08:43:51;;;;;;;;;;;;;;;21.40;100.00;100581.84;5080219;28;19981;-75
2023/09/12 08:46:18;;;;;;;;;;;;;;;21.38;100.00;100564.13;5080803;28;19916;-73
2023/09/12 08:48:45;;;;;;;;;;;;;;;22.12;100.00;100575.13;5061172;28;19920;-75
2023/09/12 08:51:12;;;;;;;;;;;;;;;22.64;100.00;100501.56;5079969;28;19912;-75
2023/09/12 08:53:37;;;;;;;;;;;;;;;22.43;100.00;100402.50;5077341;28;20025;-74
2023/09/12 08:56:03;;;;;;;;;;;;;;;22.77;100.00;100424.19;5076869;28;19948;-75
2023/09/12 08:58:30;;;;;;;;;;;;;;;22.75;100.00;100329.19;5081567;28;19916;-75
2023/09/12 09:00:56;;;;;;;;;;;;;;;22.54;100.00;100436.09;5077666;28;20295;-75
2023/09/12 09:03:23;;;;;;;;;;;;;;;22.57;100.00;100347.72;5079619;28;19920;-73
2023/09/12 09:05:49;;;;;;;;;;;;;;;22.85;100.00;100395.69;5078471;28;20427;-74
2023/09/12 09:08:14;;;;;;;;;;;;;;;22.28;100.00;100299.72;5079163;28;20344;-75
2023/09/12 09:10:54;;;;;;;;;;;;;;;22.24;100.00;100444.59;5076450;28;19920;-75
2023/09/12 09:13:19;;;;;;;;;;;;;;;21.83;100.00;100436.53;5078699;28;19935;-75
2023/09/12 09:15:44;;;;;;;;;;;;;;;21.98;100.00;100459.63;5078715;28;19912;-74
2023/09/12 09:18:11;;;;;;;;;;;;;;;22.01;100.00;100431.94;5077120;28;20349;-75
2023/09/12 09:20:37;;;;;;;;;;;;;;;22.39;100.00;100404.06;5079636;28;19947;-75
2023/09/12 09:23:07;;;;;;;;;;;;;;;22.91;100.00;100375.66;5075963;28;19952;-75
2023/09/12 09:25:33;;;;;;;;;;;;;;;22.34;100.00;100349.59;5075951;28;20378;-77
2023/09/12 09:27:58;;;;;;;;;;;;;;;22.58;100.00;100388.28;5072903;28;19920;-78
2023/09/12 09:30:42;;;;;;;;;;;;;;;23.21;100.00;100420.69;5078675;28;19916;-77
2023/09/12 09:33:08;;;;;;;;;;;;;;;23.13;100.00;100236.78;5077083;28;19917;-77
2023/09/12 09:35:33;;;;;;;;;;;;;;;23.06;100.00;100190.75;5085365;28;19919;-77
2023/09/12 09:37:59;;;;;;;;;;;;;;;23.24;100.00;100294.91;5075929;28;19951;-79
2023/09/12 09:40:24;;;;;;;;;;;;;;;23.58;100.00;100255.44;5078629;28;20272;-77
2023/09/12 09:42:53;;;;;;;;;;;;;;;24.25;100.00;100089.50;5074227;28;19927;-77
2023/09/12 09:45:18;;;;;;;;;;;;;;;24.58;100.00;99820.00;5078346;28;20351;-77
2023/09/12 09:47:44;;;;;;;;;;;;;;;23.91;100.00;99839.19;5081495;28;19916;-77
2023/09/12 09:50:13;;;;;;;;;;;;;;;23.29;100.00;99875.56;5076726;28;19924;-78
2023/09/12 09:52:38;;;;;;;;;;;;;;;23.78;100.00;99907.84;5081413;28;19916;-77
2023/09/12 09:55:06;;;;;;;;;;;;;;;24.77;100.00;99970.31;5075400;28;20310;-76
2023/09/12 09:57:36;;;;;;;;;;;;;;;24.02;100.00;99838.09;5079257;28;19920;-79
2023/09/12 10:00:07;;;;;;;;;;;;;;;24.09;100.00;99866.97;5083200;28;19920;-80
2023/09/12 10:02:33;;;;;;;;;;;;;;;22.78;100.00;99827.19;5079612;28;19973;-78
2023/09/12 10:04:59;;;;;;;;;;;;;;;23.05;100.00;100110.13;5082809;28;20395;-77
2023/09/12 10:07:24;;;;;;;;;;;;;;;23.33;100.00;100185.25;5075108;28;20409;-77
2023/09/12 10:09:50;;;;;;;;;;;;;;;24.01;100.00;100060.00;5100025;28;20010;-77
2023/09/12 10:12:16;;;;;;;;;;;;;;;25.13;100.00;99990.19;5107285;28;19915;-76
2023/09/12 10:14:43;;;;;;;;;;;;;;;24.75;100.00;99449.34;5107326;28;19912;-78
2023/09/12 10:17:12;;;;;;;;;;;;;;;24.72;100.00;99717.34;5106715;28;19916;-76
2023/09/12 10:19:41;;;;;;;;;;;;;;;24.39;100.00;99640.53;5107024;28;20478;-78
2023/09/12 10:22:10;;;;;;;;;;;;;;;25.25;100.00;99599.31;5106879;28;20102;-78
2023/09/12 10:24:35;;;;;;;;;;;;;;;24.77;100.00;99616.34;5102562;28;19915;-77
2023/09/12 10:27:02;;;;;;;;;;;;;;;24.40;100.00;99535.81;5106763;28;19916;-77
2023/09/12 10:29:28;;;;;;;;;;;;;;;25.07;100.00;99707.28;5106531;28;19920;-77
2023/09/12 10:31:53;;;;;;;;;;;;;;;25.49;100.00;99567.34;5106813;28;20531;-77
2023/09/12 10:34:20;;;;;;;;;;;;;;;25.12;100.00;99284.00;5106486;28;19912;-77
2023/09/12 10:36:45;;;;;;;;;;;;;;;25.27;100.00;99608.84;5106475;28;19920;-78
2023/09/12 10:39:11;;;;;;;;;;;;;;;25.70;100.00;99384.81;5106431;28;20858;-77
2023/09/12 10:41:38;;;;;;;;;;;;;;;25.34;100.00;99039.56;5103307;28;19920;-77
2023/09/12 10:44:09;;;;;;;;;;;;;;;25.03;100.00;99417.66;5102476;28;19918;-78
2023/09/12 10:46:36;;;;;;;;;;;;;;;24.68;100.00;99374.34;5105062;28;19916;-77
2023/09/12 10:49:03;;;;;;;;;;;;;;;25.18;100.00;99583.25;5106219;28;19919;-78
2023/09/12 10:51:29;;;;;;;;;;;;;;;24.37;100.00;99391.81;5097671;28;20342;-77
2023/09/12 10:53:54;;;;;;;;;;;;;;;25.31;100.00;99576.31;5106253;28;20006;-78
2023/09/12 10:56:20;;;;;;;;;;;;;;;24.80;100.00;99293.72;5106215;28;20374;-78
2023/09/12 10:59:06;;;;;;;;;;;;;;;25.12;100.00;99602.66;5105970;28;19922;-78
2023/09/12 11:01:33;;;;;;;;;;;;;;;24.53;100.00;99411.59;5106331;28;19950;-75
2023/09/12 11:03:58;;;;;;;;;;;;;;;24.58;100.00;99553.44;5097637;28;19911;-75
2023/09/12 11:06:30;;;;;;;;;;;;;;;23.90;100.00;99714.88;5106045;28;19916;-75
2023/09/12 11:09:14;;;;;;;;;;;;;;;24.30;100.00;99781.31;5105986;28;19929;-75
2023/09/12 11:11:41;;;;;;;;;;;;;;;24.34;100.00;99779.66;5106253;28;19915;-77
2023/09/12 11:14:06;;;;;;;;;;;;;;;24.33;100.00;99779.97;5104688;28;19912;-78
2023/09/12 11:16:32;;;;;;;;;;;;;;;24.68;100.00;99678.06;5102357;28;19927;-77
2023/09/12 11:19:11;;;;;;;;;;;;;;;24.12;100.00;99599.25;5099575;28;19985;-77
2023/09/12 11:21:37;;;;;;;;;;;;;;;24.90;100.00;99857.03;5104957;28;19920;-78
2023/09/12 11:24:03;;;;;;;;;;;;;;;25.32;100.00;99757.41;5087064;28;20422;-78
2023/09/12 11:26:29;;;;;;;;;;;;;;;25.39;100.00;99848.06;5101577;28;19922;-77
2023/09/12 11:28:55;;;;;;;;;;;;;;;25.17;100.00;99595.25;5105854;28;19916;-77
2023/09/12 11:31:26;;;;;;;;;;;;;;;25.44;100.00;99591.19;5096773;28;20563;-78
2023/09/12 11:33:52;;;;;;;;;;;;;;;25.84;100.00;99756.69;5099009;28;19928;-77
2023/09/12 11:36:18;;;;;;;;;;;;;;;25.94;100.00;99619.09;5095118;28;19919;-78
2023/09/12 11:38:49;;;;;;;;;;;;;;;25.28;100.00;99331.06;5104356;28;20003;-77
2023/09/12 11:41:14;;;;;;;;;;;;;;;25.39;100.00;99473.78;5105733;28;19922;-77
2023/09/12 11:43:39;;;;;;;;;;;;;;;25.36;100.00;99550.88;5104421;28;20298;-77
2023/09/12 11:46:06;;;;;;;;;;;;;;;25.55;100.00;99575.53;5105640;28;19970;-77
2023/09/12 11:48:31;;;;;;;;;;;;;;;25.68;100.00;99723.25;5105063;28;19920;-77
2023/09/12 11:50:57;;;;;;;;;;;;;;;26.56;100.00;99711.38;5098099;28;19916;-78
2023/09/12 11:53:25;;;;;;;;;;;;;;;27.01;100.00;99353.06;5103831;28;19916;-78
2023/09/12 11:55:52;;;;;;;;;;;;;;;26.26;100.00;99256.50;5095891;28;20028;-76
2023/09/12 11:58:18;;;;;;;;;;;;;;;25.78;100.00;99263.09;5088407;28;20046;-78
2023/09/12 12:00:46;;;;;;;;;;;;;;;25.05;100.00;99234.41;5086581;28;19922;-78
2023/09/12 12:03:11;;;;;;;;;;;;;;;24.64;100.00;99325.81;5085510;28;19923;-78
2023/09/12 12:05:36;;;;;;;;;;;;;;;24.27;100.00;99361.91;5090256;28;19916;-77
2023/09/12 12:08:02;;;;;;;;;;;;;;;24.14;100.00;99523.41;5104992;28;20298;-78
2023/09/12 12:10:28;;;;;;;;;;;;;;;23.80;100.00;99655.78;5105420;28;21185;-78
2023/09/12 12:12:54;;;;;;;;;;;;;;;24.08;100.00;99688.94;5092146;28;19916;-77
2023/09/12 12:15:19;;;;;;;;;;;;;;;23.78;100.00;99706.19;5093040;28;19915;-77
2023/09/12 12:17:45;;;;;;;;;;;;;;;23.46;100.00;99710.03;5102409;28;20003;-77
2023/09/12 12:20:11;;;;;;;;;;;;;;;23.48;100.00;99818.69;5105365;28;19911;-77
2023/09/12 12:22:40;;;;;;;;;;;;;;;23.56;100.00;99897.97;5100713;28;19945;-77